Roberts, IL (60962)

12:39 PM CST on December 08, 2016 (GMT -0600)
2 miles SSW of Roberts IL | | Change Station

Elev 771 ft 40.58 °N, 88.19 °W | Updated 51 seconds ago

Overcast
Overcast
22.1 °F
Feels Like 7 °F
N
20.3
Wind Variable Wind from West
Gusts 29.0 mph

Today
High -- | Low -- °F
--% Chance of Precip.
Yesterday
High -- | Low -- °F
Precip. -- in
Pressure 30.37 in
Visibility 10.0 miles
Clouds Overcast 2200 ft
Windchill 7 °F
Dew Point 18 °F
Humidity 81%
Rainfall 0.00 in
Snow Depth Not available.
7:04 AM 4:25 PM
Waxing Gibbous, 65% visible
METAR KTIP 081815Z AUTO 27017G23KT 10SM -SN OVC022 M04/M09 A3037 RMK AO2 T10451090
Pressure 30.37 in
Visibility 10.0 miles
Clouds Overcast 2200 ft
Windchill 7 °F
Dew Point 18 °F
Humidity 81%
Rainfall 0.00 in
Snow Depth Not available.
7:04 AM 4:25 PM
Waxing Gibbous, 65% visible
METAR KTIP 081815Z AUTO 27017G23KT 10SM -SN OVC022 M04/M09 A3037 RMK AO2 T10451090

10-Day Weather Forecast

Almanac

Astronomy

Dec. 08, 2016 Rise Set
Actual Time
Civil Twilight
Nautical Twilight
Astronomical Twilight
Moon
Length of Visible Light
Length of Day
Tomorrow will be .
, % of the Moon is Illuminated

Today's Extremes

State Highs State Lows

Community

WunderPhotos

Upload Photos

1,956,277 photos uploaded!

WunderBlog® & News

Nearby

Air Quality

  Air Quality AQ Index Pollutant
Not available.

Snow Depth

Station Depth Elevation

Earthquake Activity

City Distance Mag. Time & Date
Minimum magnitude displayed is 2.5.

Coastal Water Temperatures

Place Temperature

Stations

Nearby Weather Stations

Station Location Temp. Windchill Dew Point Humidity Wind Precip. Elev Updated Type
                   

Watches & Warnings

There are currently no watches in effect.